Time;durP1;ratioP1;P1;durP2;ratioP2;P2;SDS_P1;SDS_P2;PMS_P1;PMS_P2;Temp;Humidity;BMP_temperature;BMP_pressure;BME280_temperature;BME280_humidity;BME280_pressure;Samples;Min_cycle;Max_cycle;Signal;HPM_P1;HPM_P2
2022/08/19 00:00:26;;;;;;;18.87;17.40;;;22.60;99.90;;;;;;5031814;28;20453;-51
2022/08/19 00:02:53;;;;;;;19.70;18.10;;;22.60;99.90;;;;;;5031909;28;20203;-53
2022/08/19 00:05:19;;;;;;;20.43;18.63;;;22.60;99.90;;;;;;5031488;28;20422;-51
2022/08/19 00:07:45;;;;;;;19.73;18.10;;;22.60;99.90;;;;;;5031491;28;20424;-51
2022/08/19 00:10:13;;;;;;;19.43;17.93;;;22.60;99.90;;;;;;5031711;28;21469;-51
2022/08/19 00:12:38;;;;;;;20.43;18.60;;;22.60;99.90;;;;;;5017979;28;20194;-51
2022/08/19 00:15:12;;;;;;;19.90;18.20;;;22.60;99.90;;;;;;5030627;28;20944;-51
2022/08/19 00:17:39;;;;;;;18.97;17.27;;;22.50;99.90;;;;;;5030776;28;20198;-49
2022/08/19 00:20:06;;;;;;;19.00;17.40;;;22.50;99.90;;;;;;5031111;28;20448;-52
2022/08/19 00:22:33;;;;;;;21.70;19.57;;;22.50;99.90;;;;;;5032852;28;20425;-53
2022/08/19 00:24:59;;;;;;;21.43;19.57;;;22.50;99.90;;;;;;5031999;28;20411;-54
2022/08/19 00:27:24;;;;;;;21.07;19.27;;;22.40;99.90;;;;;;5031475;28;21084;-50
2022/08/19 00:29:50;;;;;;;20.97;19.07;;;22.50;99.90;;;;;;5032160;28;20428;-50
2022/08/19 00:32:17;;;;;;;21.87;19.97;;;22.50;99.90;;;;;;5031274;28;20178;-52
2022/08/19 00:34:43;;;;;;;20.93;19.03;;;22.50;99.90;;;;;;5031353;28;20240;-53
2022/08/19 00:37:09;;;;;;;21.20;19.20;;;22.50;99.90;;;;;;5031084;28;21311;-50
2022/08/19 00:39:34;;;;;;;21.00;19.00;;;22.40;99.90;;;;;;5032085;28;20500;-55
2022/08/19 00:42:00;;;;;;;22.10;20.07;;;22.40;99.90;;;;;;5029571;28;20699;-51
2022/08/19 00:44:28;;;;;;;21.50;19.57;;;22.40;99.90;;;;;;5031779;28;20273;-52
2022/08/19 00:46:56;;;;;;;21.30;19.40;;;22.30;99.90;;;;;;5029119;28;20906;-53
2022/08/19 00:49:45;;;;;;;21.40;19.60;;;22.30;99.90;;;;;;5031046;28;20456;-55
2022/08/19 00:52:19;;;;;;;22.90;20.80;;;22.30;99.90;;;;;;5027379;28;20467;-53
2022/08/19 00:54:48;;;;;;;21.67;19.67;;;22.20;99.90;;;;;;5023218;28;20738;-52
2022/08/19 00:57:18;;;;;;;21.73;19.87;;;22.20;99.90;;;;;;5031312;28;20969;-53
2022/08/19 00:59:47;;;;;;;21.70;19.90;;;22.20;99.90;;;;;;5031405;28;20405;-55
2022/08/19 01:02:16;;;;;;;22.20;20.20;;;22.10;99.90;;;;;;5030235;28;20419;-52
2022/08/19 01:04:42;;;;;;;22.70;20.70;;;22.20;99.90;;;;;;5031399;28;20408;-51
2022/08/19 01:07:08;;;;;;;22.43;20.43;;;22.20;99.90;;;;;;5031252;28;20914;-54
2022/08/19 01:09:34;;;;;;;22.60;20.57;;;22.20;99.90;;;;;;5030698;28;20186;-55
2022/08/19 01:12:00;;;;;;;21.27;19.47;;;22.20;99.90;;;;;;5031089;28;20224;-53
2022/08/19 01:14:26;;;;;;;21.77;19.87;;;22.10;99.90;;;;;;5029930;28;20252;-51
2022/08/19 01:16:54;;;;;;;23.70;21.60;;;22.10;99.90;;;;;;5027635;28;20973;-53
2022/08/19 01:19:30;;;;;;;24.13;22.03;;;22.10;99.90;;;;;;5030256;28;20187;-53
2022/08/19 01:22:05;;;;;;;21.20;19.40;;;22.10;99.90;;;;;;5029677;28;20439;-48
2022/08/19 01:24:31;;;;;;;22.57;20.47;;;22.00;99.90;;;;;;5031212;28;20435;-52
2022/08/19 01:26:57;;;;;;;23.30;21.37;;;22.00;99.90;;;;;;5029107;28;20789;-55
2022/08/19 01:29:23;;;;;;;24.30;22.20;;;22.00;99.90;;;;;;5030378;28;20419;-49
2022/08/19 01:31:51;;;;;;;23.70;21.60;;;22.00;99.90;;;;;;5014441;28;21053;-53
2022/08/19 01:34:18;;;;;;;21.93;20.03;;;22.10;99.90;;;;;;5030170;28;20548;-54
2022/08/19 01:36:46;;;;;;;23.57;21.47;;;22.10;99.90;;;;;;5031480;28;20471;-52
2022/08/19 01:39:15;;;;;;;24.47;22.00;;;22.10;99.90;;;;;;5030054;28;20425;-53
2022/08/19 01:41:41;;;;;;;23.00;20.90;;;22.10;99.90;;;;;;5029950;28;20415;-51
2022/08/19 01:44:08;;;;;;;24.43;22.23;;;22.10;99.90;;;;;;5030993;28;20431;-49
2022/08/19 01:46:33;;;;;;;23.97;21.97;;;22.10;99.90;;;;;;5026194;28;20437;-54
2022/08/19 01:49:00;;;;;;;23.80;21.70;;;22.10;99.90;;;;;;5029605;28;20440;-50
2022/08/19 01:51:26;;;;;;;24.07;21.77;;;22.10;99.90;;;;;;5027342;28;20200;-49
2022/08/19 01:53:52;;;;;;;24.20;22.00;;;22.10;99.90;;;;;;5016710;28;20443;-54
2022/08/19 01:56:18;;;;;;;24.30;22.20;;;22.00;99.90;;;;;;5029580;28;20918;-52
2022/08/19 01:58:51;;;;;;;23.10;21.00;;;22.00;99.90;;;;;;5029349;28;20555;-55
2022/08/19 02:01:17;;;;;;;24.17;22.00;;;22.00;99.90;;;;;;5028043;28;20444;-54
2022/08/19 02:03:43;;;;;;;23.70;21.60;;;22.00;99.90;;;;;;5029667;28;20417;-54
2022/08/19 02:06:08;;;;;;;24.50;22.30;;;22.00;99.90;;;;;;5029397;28;20558;-53
2022/08/19 02:08:37;;;;;;;23.83;21.83;;;22.00;99.90;;;;;;5029700;28;20228;-48
2022/08/19 02:11:04;;;;;;;24.83;22.73;;;22.00;99.90;;;;;;5021102;28;20965;-51
2022/08/19 02:13:30;;;;;;;24.43;22.13;;;22.00;99.90;;;;;;5039549;28;20827;-47
2022/08/19 02:15:56;;;;;;;25.40;23.10;;;22.00;99.90;;;;;;5030967;28;20829;-54
2022/08/19 02:18:21;;;;;;;23.83;21.87;;;22.00;99.90;;;;;;5028745;28;20527;-53
2022/08/19 02:20:47;;;;;;;25.30;23.10;;;21.90;99.90;;;;;;5028961;28;20193;-52
2022/08/19 02:23:14;;;;;;;24.20;22.17;;;22.00;99.90;;;;;;5030118;28;20189;-55
2022/08/19 02:25:41;;;;;;;22.87;20.73;;;22.00;99.90;;;;;;5029283;28;20196;-54
2022/08/19 02:28:07;;;;;;;25.00;22.80;;;22.10;99.90;;;;;;5029909;28;20452;-53
2022/08/19 02:30:32;;;;;;;23.50;21.50;;;22.00;99.90;;;;;;5029466;28;20465;-50
2022/08/19 02:32:59;;;;;;;24.50;22.40;;;22.20;99.90;;;;;;5027564;28;20193;-52
2022/08/19 02:35:25;;;;;;;25.67;23.47;;;22.10;99.90;;;;;;5027521;28;20169;-48
2022/08/19 02:40:35;;;;;;;25.07;22.77;;;22.10;99.90;;;;;;5032045;28;20454;-53
2022/08/19 02:43:07;;;;;;;26.73;24.30;;;22.10;99.90;;;;;;5033134;28;20855;-54
2022/08/19 02:45:39;;;;;;;24.63;22.43;;;22.00;99.90;;;;;;5034743;28;20181;-54
2022/08/19 02:48:04;;;;;;;25.10;22.70;;;22.10;99.90;;;;;;5034207;28;20425;-53
2022/08/19 02:50:31;;;;;;;24.87;22.67;;;22.10;99.90;;;;;;5033528;28;21115;-51
2022/08/19 02:52:57;;;;;;;23.57;21.57;;;22.00;99.90;;;;;;5024330;28;20257;-54
2022/08/19 02:55:22;;;;;;;26.20;23.63;;;22.00;99.90;;;;;;5031088;28;20465;-55
2022/08/19 02:57:48;;;;;;;24.80;22.70;;;22.10;99.90;;;;;;5032987;28;20575;-52
2022/08/19 03:00:15;;;;;;;24.40;22.40;;;22.00;99.90;;;;;;5024961;28;20208;-52
2022/08/19 03:02:41;;;;;;;25.53;23.43;;;22.00;99.90;;;;;;5030331;28;20194;-51
2022/08/19 03:05:09;;;;;;;24.67;22.60;;;22.00;99.90;;;;;;5031469;28;20664;-50
2022/08/19 03:07:35;;;;;;;25.40;23.20;;;22.00;99.90;;;;;;5032761;28;20192;-53
2022/08/19 03:10:01;;;;;;;24.57;22.53;;;22.00;99.90;;;;;;5033098;28;20473;-50
2022/08/19 03:12:26;;;;;;;25.13;22.83;;;22.00;99.90;;;;;;5032806;28;20420;-53
2022/08/19 03:14:52;;;;;;;24.23;22.23;;;22.00;99.90;;;;;;5033827;28;20184;-52
2022/08/19 03:17:18;;;;;;;24.87;22.67;;;21.90;99.90;;;;;;5032839;28;20177;-48
2022/08/19 03:19:44;;;;;;;24.60;22.60;;;21.90;99.90;;;;;;5033302;28;20180;-55
2022/08/19 03:22:10;;;;;;;25.07;22.80;;;22.00;99.90;;;;;;5032473;28;20595;-50
2022/08/19 03:24:36;;;;;;;28.07;25.60;;;22.10;99.90;;;;;;5032353;28;20619;-50
2022/08/19 03:27:04;;;;;;;25.83;23.63;;;22.00;99.90;;;;;;5030761;28;20192;-53
2022/08/19 03:29:31;;;;;;;25.37;23.17;;;21.90;99.90;;;;;;5032088;28;21277;-53
2022/08/19 03:32:02;;;;;;;28.33;25.83;;;21.90;99.90;;;;;;5032200;28;20464;-51
2022/08/19 03:34:30;;;;;;;26.87;24.57;;;21.90;99.90;;;;;;5032329;28;20405;-51
2022/08/19 03:37:00;;;;;;;25.90;23.70;;;22.00;99.90;;;;;;5033084;28;20831;-51
2022/08/19 03:39:26;;;;;;;27.23;24.93;;;22.00;99.90;;;;;;5033711;28;20469;-49
2022/08/19 03:41:56;;;;;;;27.67;24.87;;;22.00;99.90;;;;;;5033949;28;20431;-53
2022/08/19 03:44:22;;;;;;;27.20;24.87;;;21.80;99.90;;;;;;5031229;28;20452;-51
2022/08/19 03:46:55;;;;;;;27.70;25.20;;;21.90;99.90;;;;;;5032067;28;20929;-51
2022/08/19 03:49:23;;;;;;;26.60;24.10;;;21.90;99.90;;;;;;5032112;28;20969;-49
2022/08/19 03:51:50;;;;;;;26.60;24.30;;;21.90;99.90;;;;;;5032544;28;20505;-52
2022/08/19 03:54:19;;;;;;;27.50;24.93;;;21.90;99.90;;;;;;5029720;28;20458;-50
2022/08/19 03:56:46;;;;;;;26.70;24.30;;;22.00;99.90;;;;;;5030421;28;20463;-49
2022/08/19 03:59:16;;;;;;;27.90;25.50;;;22.00;99.90;;;;;;5028783;28;20529;-50
2022/08/19 04:01:42;;;;;;;27.50;25.10;;;21.90;99.90;;;;;;5023186;28;20455;-54
2022/08/19 04:04:07;;;;;;;27.20;24.90;;;21.90;99.90;;;;;;5031998;28;20522;-50
2022/08/19 04:06:36;;;;;;;27.80;25.10;;;22.00;99.90;;;;;;5031990;28;20445;-50
2022/08/19 04:09:04;;;;;;;26.63;24.23;;;22.00;99.90;;;;;;5029199;28;20446;-53
2022/08/19 04:11:35;;;;;;;28.03;25.17;;;22.00;99.90;;;;;;5030475;28;21112;-52
2022/08/19 04:14:01;;;;;;;27.87;25.37;;;21.90;99.90;;;;;;5029644;28;20478;-52
2022/08/19 04:16:28;;;;;;;27.40;25.07;;;21.90;99.90;;;;;;5029963;28;20443;-50
2022/08/19 04:18:55;;;;;;;25.70;23.50;;;21.90;99.90;;;;;;5026249;28;20484;-53
2022/08/19 04:21:24;;;;;;;27.47;25.20;;;21.90;99.90;;;;;;5043041;28;20427;-52
2022/08/19 04:23:50;;;;;;;26.57;24.17;;;21.90;99.90;;;;;;5014995;28;20937;-50
2022/08/19 04:26:18;;;;;;;28.10;25.60;;;21.90;99.90;;;;;;5018024;28;20440;-53
2022/08/19 04:28:44;;;;;;;27.87;25.60;;;21.90;99.90;;;;;;5014519;28;20195;-47
2022/08/19 04:31:15;;;;;;;28.93;26.33;;;21.90;99.90;;;;;;5022211;28;20467;-54
2022/08/19 04:33:41;;;;;;;27.07;24.73;;;22.00;99.90;;;;;;5020823;28;20191;-54
2022/08/19 04:36:07;;;;;;;26.17;23.87;;;22.00;99.90;;;;;;5013090;28;20509;-50
2022/08/19 04:38:33;;;;;;;27.70;25.20;;;22.00;99.90;;;;;;5021829;28;20189;-49
2022/08/19 04:43:48;;;;;;;27.93;25.53;;;22.00;99.90;;;;;;5026081;28;20439;-49
2022/08/19 04:46:14;;;;;;;28.87;26.47;;;22.00;99.90;;;;;;5031132;28;20420;-54
2022/08/19 04:48:40;;;;;;;28.80;26.00;;;21.90;99.90;;;;;;5031460;28;20474;-51
2022/08/19 04:51:09;;;;;;;29.20;26.73;;;21.80;99.90;;;;;;5030987;28;20196;-53
2022/08/19 04:53:37;;;;;;;29.30;26.70;;;21.90;99.90;;;;;;5017363;28;20471;-49
2022/08/19 04:56:12;;;;;;;27.43;24.83;;;21.80;99.90;;;;;;5030622;28;20510;-49
2022/08/19 04:58:42;;;;;;;29.83;27.23;;;21.80;99.90;;;;;;5030499;28;20467;-49
2022/08/19 05:01:10;;;;;;;27.30;24.90;;;21.70;99.90;;;;;;5029803;28;20448;-51
2022/08/19 05:03:36;;;;;;;28.60;25.90;;;21.70;99.90;;;;;;5027668;28;20526;-49
2022/08/19 05:06:11;;;;;;;26.13;23.70;;;21.80;99.90;;;;;;5029910;28;20523;-50
2022/08/19 05:08:42;;;;;;;27.60;25.00;;;21.80;99.90;;;;;;5029662;28;20534;-51
2022/08/19 05:11:41;;;;;;;27.37;24.93;;;21.80;99.90;;;;;;5030445;28;20496;-54
2022/08/19 05:14:08;;;;;;;27.27;24.73;;;21.90;99.90;;;;;;5029793;28;20433;-52
2022/08/19 05:16:34;;;;;;;27.87;25.23;;;21.90;99.90;;;;;;5028494;28;20522;-52
2022/08/19 05:24:29;;;;;;;28.97;26.23;;;21.90;99.90;;;;;;5030526;28;21004;-49
2022/08/19 05:26:59;;;;;;;28.83;26.33;;;21.80;99.90;;;;;;5029943;28;20508;-50
2022/08/19 05:29:27;;;;;;;29.43;26.53;;;21.80;99.90;;;;;;5029825;28;20413;-54
2022/08/19 05:31:53;;;;;;;27.37;24.97;;;21.90;99.90;;;;;;5026993;28;20468;-53
2022/08/19 05:34:22;;;;;;;29.70;27.00;;;21.80;99.90;;;;;;5017925;28;20909;-48
2022/08/19 05:36:49;;;;;;;28.43;25.70;;;21.90;99.90;;;;;;5030056;28;20958;-53
2022/08/19 05:39:19;;;;;;;29.97;27.27;;;21.90;99.90;;;;;;5030634;28;20417;-48
2022/08/19 05:41:47;;;;;;;30.70;28.00;;;21.80;99.90;;;;;;5030652;28;20415;-47
2022/08/19 05:44:13;;;;;;;28.90;26.10;;;21.70;99.90;;;;;;5028938;28;20442;-52
2022/08/19 05:46:39;;;;;;;30.40;27.70;;;21.70;99.90;;;;;;5027914;28;20463;-51
2022/08/19 05:49:06;;;;;;;29.50;26.80;;;21.60;99.90;;;;;;5029703;28;20835;-52
2022/08/19 05:51:33;;;;;;;28.77;26.07;;;21.70;99.90;;;;;;5028450;28;20502;-52
2022/08/19 05:54:00;;;;;;;27.87;25.37;;;21.60;99.90;;;;;;5022356;28;20472;-55
2022/08/19 05:56:26;;;;;;;29.27;26.57;;;21.60;99.90;;;;;;5029731;28;20414;-51
2022/08/19 05:58:53;;;;;;;29.50;26.80;;;21.60;99.90;;;;;;5029412;28;20473;-51
2022/08/19 06:01:20;;;;;;;28.33;25.77;;;21.60;99.90;;;;;;5029585;28;20277;-49
2022/08/19 06:03:47;;;;;;;28.87;26.10;;;21.60;99.90;;;;;;5029518;28;20419;-51
2022/08/19 06:06:14;;;;;;;27.77;25.27;;;21.60;99.90;;;;;;5028434;28;20428;-51
2022/08/19 06:08:42;;;;;;;29.00;26.30;;;21.60;99.90;;;;;;5030138;28;20512;-50
2022/08/19 06:11:33;;;;;;;30.00;27.20;;;21.50;99.90;;;;;;5034324;28;20818;-50
2022/08/19 06:14:01;;;;;;;29.37;26.53;;;21.40;99.90;;;;;;5038154;28;20417;-52
2022/08/19 06:16:28;;;;;;;28.50;25.90;;;21.30;99.90;;;;;;5037501;28;20875;-51
2022/08/19 06:18:56;;;;;;;28.40;25.77;;;21.20;99.90;;;;;;5040109;28;20471;-51
2022/08/19 06:21:25;;;;;;;29.10;26.47;;;21.20;99.90;;;;;;5029944;28;20443;-54
2022/08/19 06:23:51;;;;;;;27.50;24.90;;;21.10;99.90;;;;;;5027829;28;20450;-50
2022/08/19 06:26:19;;;;;;;27.07;24.57;;;21.10;99.90;;;;;;5029252;28;20988;-53
2022/08/19 06:28:46;;;;;;;25.87;23.57;;;21.10;99.90;;;;;;5029242;28;20505;-54
2022/08/19 06:31:17;;;;;;;27.27;24.80;;;21.10;99.90;;;;;;5028354;28;20459;-49
2022/08/19 06:33:44;;;;;;;24.93;22.63;;;21.00;99.90;;;;;;5027673;28;21186;-53
2022/08/19 06:36:18;;;;;;;23.70;21.60;;;21.00;99.90;;;;;;5029606;28;20425;-50
2022/08/19 06:38:44;;;;;;;24.97;22.67;;;21.10;99.90;;;;;;5029270;28;20754;-54
2022/08/19 06:41:09;;;;;;;23.77;21.50;;;21.10;99.90;;;;;;5029241;28;20430;-51
2022/08/19 06:43:35;;;;;;;22.97;20.97;;;21.10;99.90;;;;;;5029215;28;20189;-47
2022/08/19 06:46:03;;;;;;;22.43;20.53;;;21.10;99.90;;;;;;5026393;28;20186;-49
2022/08/19 06:48:29;;;;;;;22.43;20.53;;;21.10;99.90;;;;;;5025470;28;20454;-50
2022/08/19 06:50:55;;;;;;;21.00;19.20;;;21.10;99.90;;;;;;5030683;28;20549;-50
2022/08/19 06:53:21;;;;;;;20.40;18.50;;;21.20;99.90;;;;;;5023734;28;20470;-51
2022/08/19 06:55:47;;;;;;;20.33;18.70;;;21.20;99.90;;;;;;5023579;28;20471;-49
2022/08/19 06:58:12;;;;;;;20.77;18.97;;;21.20;99.90;;;;;;5022994;28;21018;-50
2022/08/19 07:00:39;;;;;;;20.80;19.00;;;21.30;99.90;;;;;;5013311;28;20235;-47
2022/08/19 07:03:05;;;;;;;21.07;19.07;;;21.30;99.90;;;;;;5026854;28;20182;-52
2022/08/19 07:05:30;;;;;;;19.97;18.27;;;21.30;99.90;;;;;;5041103;28;20474;-49
2022/08/19 07:07:57;;;;;;;19.10;17.20;;;21.30;99.90;;;;;;5048894;28;20210;-50
2022/08/19 07:10:22;;;;;;;20.33;18.53;;;21.30;99.90;;;;;;5048975;28;20193;-49
2022/08/19 07:12:49;;;;;;;19.97;18.20;;;21.30;99.90;;;;;;5044009;28;20435;-47
2022/08/19 07:15:16;;;;;;;18.73;17.03;;;21.20;99.90;;;;;;5026156;28;20177;-51
2022/08/19 07:17:43;;;;;;;21.13;19.27;;;21.10;99.90;;;;;;5009156;28;20453;-54
2022/08/19 07:20:09;;;;;;;21.80;19.67;;;21.20;99.90;;;;;;5009147;28;20441;-50
2022/08/19 07:22:39;;;;;;;21.10;19.20;;;21.20;99.90;;;;;;5020716;28;20779;-52
2022/08/19 07:25:07;;;;;;;20.40;18.50;;;21.30;99.90;;;;;;5028530;28;20427;-50
2022/08/19 07:27:33;;;;;;;19.83;18.13;;;21.30;99.90;;;;;;5032668;28;20944;-52
2022/08/19 07:29:59;;;;;;;20.60;18.80;;;21.30;99.90;;;;;;5022423;28;21029;-47
2022/08/19 07:32:26;;;;;;;20.50;18.60;;;21.30;99.90;;;;;;5030516;28;20450;-52
2022/08/19 07:34:52;;;;;;;20.80;18.80;;;21.30;99.90;;;;;;5036594;28;20497;-51
2022/08/19 07:37:18;;;;;;;22.00;19.63;;;21.30;99.90;;;;;;5039178;28;20436;-52
2022/08/19 07:39:43;;;;;;;22.70;19.77;;;21.30;99.90;;;;;;5032180;28;20425;-50
2022/08/19 07:42:10;;;;;;;22.33;20.20;;;21.30;99.90;;;;;;5039764;28;20183;-54
2022/08/19 07:44:37;;;;;;;22.60;20.50;;;21.30;99.90;;;;;;5040450;28;20180;-50
2022/08/19 07:47:03;;;;;;;23.03;20.93;;;21.20;99.90;;;;;;5038032;28;20926;-52
2022/08/19 07:49:29;;;;;;;22.77;20.77;;;21.00;99.90;;;;;;5042724;28;20787;-52
2022/08/19 07:52:01;;;;;;;24.23;21.93;;;21.00;99.90;;;;;;5033427;28;20450;-48
2022/08/19 07:54:30;;;;;;;23.03;20.60;;;21.00;99.90;;;;;;5024317;28;20894;-50
2022/08/19 07:56:56;;;;;;;24.83;22.20;;;21.00;99.90;;;;;;5031597;28;20461;-51
2022/08/19 07:59:23;;;;;;;25.13;22.40;;;20.90;99.90;;;;;;5015226;28;20442;-51
2022/08/19 08:01:50;;;;;;;23.93;21.67;;;20.80;99.90;;;;;;5031981;28;20800;-51
2022/08/19 08:09:45;;;;;;;26.70;24.03;;;20.80;99.90;;;;;;5031999;28;20427;-49
2022/08/19 08:12:18;;;;;;;26.53;24.07;;;20.80;99.90;;;;;;5031513;28;20465;-52
2022/08/19 08:14:52;;;;;;;27.60;24.93;;;20.80;99.90;;;;;;5032287;28;20592;-50
2022/08/19 08:17:20;;;;;;;25.87;23.07;;;20.80;99.90;;;;;;5031838;28;20516;-48
2022/08/19 08:19:47;;;;;;;27.17;24.50;;;20.80;99.90;;;;;;5030790;28;20426;-49
2022/08/19 08:25:06;;;;;;;26.70;24.10;;;20.80;99.90;;;;;;5029946;28;20549;-49
2022/08/19 08:27:34;;;;;;;28.07;25.20;;;20.80;99.90;;;;;;5029816;28;20897;-53
2022/08/19 08:30:00;;;;;;;27.60;24.73;;;20.80;99.90;;;;;;5030858;28;20428;-55
2022/08/19 08:32:26;;;;;;;27.50;24.90;;;20.90;99.90;;;;;;5028685;28;20429;-49
2022/08/19 08:34:52;;;;;;;27.90;25.40;;;20.90;99.90;;;;;;5031115;28;20185;-46
2022/08/19 08:37:17;;;;;;;26.20;23.80;;;20.90;99.90;;;;;;5031437;28;20414;-50
2022/08/19 08:39:43;;;;;;;24.67;22.40;;;20.90;99.90;;;;;;5031665;28;20545;-54
2022/08/19 08:42:40;;;;;;;26.30;23.90;;;20.80;99.90;;;;;;5031737;28;20196;-50
2022/08/19 08:45:17;;;;;;;25.00;22.70;;;20.90;99.90;;;;;;5031581;28;20278;-52
2022/08/19 08:47:47;;;;;;;24.50;22.20;;;20.80;99.90;;;;;;5031497;28;20503;-51
2022/08/19 08:50:20;;;;;;;25.50;23.10;;;20.80;99.90;;;;;;5031466;28;20428;-49
2022/08/19 08:52:48;;;;;;;26.33;23.87;;;20.80;99.90;;;;;;5031712;28;20427;-50
2022/08/19 08:55:21;;;;;;;23.70;21.40;;;20.80;99.90;;;;;;5030768;28;20803;-53
2022/08/19 08:57:47;;;;;;;26.03;23.73;;;20.80;99.90;;;;;;5031636;28;20501;-51
2022/08/19 09:00:24;;;;;;;24.63;22.43;;;20.80;99.90;;;;;;5031381;28;20943;-51
2022/08/19 09:02:50;;;;;;;24.77;22.50;;;20.80;99.90;;;;;;5020893;28;20181;-49
2022/08/19 09:05:19;;;;;;;24.70;22.50;;;20.90;99.90;;;;;;5031355;28;20502;-47
2022/08/19 09:08:00;;;;;;;23.90;21.80;;;21.00;99.90;;;;;;5030594;28;20562;-51
2022/08/19 09:10:36;;;;;;;22.90;20.60;;;21.10;99.90;;;;;;5030362;28;20466;-49
2022/08/19 09:13:10;;;;;;;21.90;20.00;;;21.20;99.90;;;;;;5031227;28;20410;-54
2022/08/19 09:15:46;;;;;;;20.27;18.53;;;21.40;99.90;;;;;;5030355;28;20414;-48
2022/08/19 09:18:11;;;;;;;19.67;17.97;;;21.60;99.90;;;;;;5028704;28;20419;-51
2022/08/19 09:20:37;;;;;;;22.10;19.90;;;21.70;99.90;;;;;;5029559;28;20994;-53
2022/08/19 09:23:03;;;;;;;20.37;18.53;;;21.90;99.90;;;;;;5030207;28;20221;-48
2022/08/19 09:25:31;;;;;;;19.90;18.20;;;22.10;99.90;;;;;;5030082;28;20200;-51
2022/08/19 09:27:57;;;;;;;19.40;17.80;;;22.20;99.90;;;;;;5031175;28;20825;-55
2022/08/19 09:30:26;;;;;;;18.37;16.87;;;22.30;99.90;;;;;;5032053;28;20464;-52
2022/08/19 09:32:52;;;;;;;18.80;17.20;;;22.50;99.90;;;;;;5025446;28;20179;-48
2022/08/19 09:35:19;;;;;;;18.43;16.93;;;22.70;99.90;;;;;;5030872;28;20731;-51
2022/08/19 09:37:45;;;;;;;17.37;15.90;;;22.90;99.90;;;;;;5030101;28;20428;-51
2022/08/19 09:40:11;;;;;;;17.67;16.23;;;23.10;99.90;;;;;;5030868;28;20420;-54
2022/08/19 09:42:37;;;;;;;18.53;16.87;;;23.30;99.90;;;;;;5017274;28;20182;-49
2022/08/19 09:45:03;;;;;;;18.07;16.53;;;23.50;99.90;;;;;;5029865;28;20421;-52
2022/08/19 09:47:29;;;;;;;17.20;15.80;;;23.70;99.90;;;;;;5028128;28;20410;-51
2022/08/19 09:49:54;;;;;;;17.80;16.07;;;24.00;99.90;;;;;;5029241;28;20453;-50
2022/08/19 09:52:20;;;;;;;18.83;17.33;;;24.20;99.90;;;;;;5029538;28;20288;-52
2022/08/19 09:54:46;;;;;;;17.30;15.83;;;24.30;99.90;;;;;;5029890;28;20695;-54
2022/08/19 09:57:12;;;;;;;19.20;17.60;;;24.40;99.90;;;;;;5030375;28;20590;-50
2022/08/19 09:59:39;;;;;;;17.17;15.67;;;24.60;99.90;;;;;;5029883;28;20649;-51
2022/08/19 10:02:05;;;;;;;18.50;17.10;;;24.80;99.90;;;;;;5026356;28;20441;-54
2022/08/19 10:07:15;;;;;;;18.13;16.53;;;25.10;99.90;;;;;;5030035;28;20474;-50
2022/08/19 10:09:41;;;;;;;19.43;17.83;;;25.10;99.90;;;;;;5029357;28;20424;-54
2022/08/19 10:12:08;;;;;;;18.50;17.03;;;25.10;99.90;;;;;;5029409;28;20459;-48
2022/08/19 10:14:34;;;;;;;18.67;17.17;;;25.20;99.90;;;;;;5029060;28;20184;-49
2022/08/19 10:17:02;;;;;;;18.90;17.37;;;25.10;99.90;;;;;;5028916;28;20509;-49
2022/08/19 10:19:32;;;;;;;17.67;16.17;;;25.10;99.90;;;;;;5029540;28;20441;-53
2022/08/19 10:21:58;;;;;;;16.77;15.40;;;25.10;99.90;;;;;;5030272;28;20412;-52
2022/08/19 10:24:25;;;;;;;17.20;15.70;;;25.10;99.90;;;;;;5029216;28;20432;-49
2022/08/19 10:26:51;;;;;;;17.00;15.70;;;24.70;99.90;;;;;;5028941;28;20236;-51
2022/08/19 10:29:17;;;;;;;16.93;15.53;;;24.60;99.90;;;;;;5029108;28;20420;-51
2022/08/19 10:31:42;;;;;;;15.80;14.50;;;24.60;99.90;;;;;;5027585;28;20462;-52
2022/08/19 10:34:09;;;;;;;15.63;14.43;;;24.80;99.90;;;;;;5029143;28;20551;-53
2022/08/19 10:36:36;;;;;;;15.27;14.17;;;24.90;99.90;;;;;;5029555;28;20177;-51
2022/08/19 10:39:05;;;;;;;15.07;13.87;;;25.20;99.90;;;;;;5030486;28;20417;-50
2022/08/19 10:41:33;;;;;;;15.70;14.43;;;25.40;99.90;;;;;;5028998;28;20871;-52
2022/08/19 10:44:05;;;;;;;13.70;12.63;;;25.70;99.90;;;;;;5029240;28;20421;-53
2022/08/19 10:46:32;;;;;;;13.63;12.63;;;26.00;99.90;;;;;;5030136;28;20421;-52
2022/08/19 10:48:59;;;;;;;13.30;12.30;;;26.30;99.90;;;;;;5028752;28;21245;-52
2022/08/19 10:54:10;;;;;;;13.00;12.00;;;27.60;99.90;;;;;;5028746;28;20410;-49
2022/08/19 10:56:51;;;;;;;13.40;12.47;;;28.70;99.90;;;;;;5028833;28;20407;-52
2022/08/19 10:59:19;;;;;;;12.43;11.60;;;29.30;99.90;;;;;;5029041;28;20421;-53
2022/08/19 11:01:46;;;;;;;13.30;12.40;;;30.20;96.00;;;;;;5033103;28;20424;-52
2022/08/19 11:04:13;;;;;;;13.43;12.43;;;30.60;93.10;;;;;;5036131;28;20440;-52
2022/08/19 11:06:41;;;;;;;14.00;13.10;;;30.00;93.10;;;;;;5032816;28;20425;-52
2022/08/19 11:09:07;;;;;;;13.07;12.27;;;29.30;93.90;;;;;;5033393;28;20435;-50
2022/08/19 11:11:39;;;;;;;13.87;12.97;;;28.60;95.60;;;;;;5033408;28;20473;-52
2022/08/19 11:14:09;;;;;;;13.33;12.43;;;28.00;98.00;;;;;;5034235;28;20428;-53
2022/08/19 11:16:36;;;;;;;13.13;12.13;;;27.70;99.30;;;;;;5032902;28;20440;-51
2022/08/19 11:19:02;;;;;;;12.10;11.30;;;27.20;99.90;;;;;;5031573;28;20908;-49
2022/08/19 11:21:33;;;;;;;11.70;10.90;;;26.90;99.90;;;;;;5032745;28;20468;-52
2022/08/19 11:24:10;;;;;;;11.20;10.40;;;26.80;99.90;;;;;;5032501;28;20429;-51
2022/08/19 11:26:38;;;;;;;11.73;10.93;;;26.70;99.90;;;;;;5033570;28;20433;-52
2022/08/19 11:29:05;;;;;;;11.50;10.70;;;26.60;99.90;;;;;;5033929;28;20516;-55
2022/08/19 11:31:33;;;;;;;10.90;10.20;;;26.60;99.90;;;;;;5030418;28;20552;-49
2022/08/19 11:34:01;;;;;;;12.00;11.20;;;26.70;99.90;;;;;;5023795;28;20439;-50
2022/08/19 11:36:27;;;;;;;10.63;9.90;;;26.70;99.90;;;;;;5032584;28;20437;-53
2022/08/19 11:38:53;;;;;;;12.10;11.20;;;26.70;99.90;;;;;;5032445;28;21292;-54
2022/08/19 11:41:22;;;;;;;11.63;10.87;;;26.40;99.90;;;;;;5032722;28;20475;-51
2022/08/19 11:43:48;;;;;;;13.30;12.20;;;26.30;99.90;;;;;;5030011;28;20490;-53
2022/08/19 11:46:15;;;;;;;12.97;12.07;;;26.30;99.90;;;;;;5023231;28;20812;-50
2022/08/19 11:48:42;;;;;;;14.20;13.10;;;26.20;99.90;;;;;;5029897;28;20484;-52
2022/08/19 11:51:10;;;;;;;14.80;13.70;;;26.00;99.90;;;;;;5032493;28;20537;-54
2022/08/19 11:53:36;;;;;;;14.90;13.83;;;25.80;99.90;;;;;;5031986;28;20508;-57
2022/08/19 11:56:03;;;;;;;13.80;12.80;;;25.60;99.90;;;;;;5026575;28;20514;-55
2022/08/19 11:58:29;;;;;;;14.90;13.73;;;25.50;99.90;;;;;;5032257;28;20480;-51
2022/08/19 12:00:55;;;;;;;14.70;13.60;;;25.30;99.90;;;;;;5032505;28;20424;-51
2022/08/19 12:03:21;;;;;;;16.70;15.50;;;25.20;99.90;;;;;;5031456;28;20462;-50
2022/08/19 12:05:47;;;;;;;16.07;14.87;;;25.10;99.90;;;;;;5028351;28;20269;-55
2022/08/19 12:08:15;;;;;;;15.57;14.20;;;25.00;99.90;;;;;;5027393;28;20775;-54
2022/08/19 12:10:45;;;;;;;15.37;14.17;;;24.90;99.90;;;;;;5029753;28;20466;-51
2022/08/19 12:13:13;;;;;;;16.50;15.30;;;24.90;99.90;;;;;;5028873;28;20431;-54
2022/08/19 12:15:40;;;;;;;15.03;13.83;;;24.90;99.90;;;;;;5029639;28;20806;-53
2022/08/19 12:18:07;;;;;;;15.13;13.83;;;24.90;99.90;;;;;;5026777;28;20452;-55
2022/08/19 12:20:39;;;;;;;16.43;15.17;;;24.90;99.90;;;;;;5030991;28;20434;-49
2022/08/19 12:23:06;;;;;;;16.80;15.47;;;24.90;99.90;;;;;;5028966;28;20509;-53
2022/08/19 12:25:32;;;;;;;16.70;15.27;;;24.90;99.90;;;;;;5031011;28;20487;-54
2022/08/19 12:27:58;;;;;;;17.50;16.10;;;24.80;99.90;;;;;;5029161;28;20500;-53
2022/08/19 12:30:24;;;;;;;16.57;15.27;;;24.90;99.90;;;;;;5028359;28;20431;-52
2022/08/19 12:32:51;;;;;;;18.07;16.57;;;24.70;99.90;;;;;;5029148;28;20190;-50
2022/08/19 12:35:19;;;;;;;17.73;16.23;;;24.60;99.90;;;;;;5030604;28;20466;-54
2022/08/19 12:37:46;;;;;;;19.47;17.97;;;24.50;99.90;;;;;;5030580;28;20415;-53
2022/08/19 12:40:15;;;;;;;21.13;19.33;;;24.50;99.90;;;;;;5027882;28;20436;-54
2022/08/19 12:42:42;;;;;;;23.13;21.13;;;24.40;99.90;;;;;;5031097;28;20418;-53
2022/08/19 12:45:09;;;;;;;23.53;21.57;;;24.30;99.90;;;;;;5029291;28;20433;-56
2022/08/19 12:47:35;;;;;;;24.43;22.30;;;24.10;99.90;;;;;;5028073;28;20437;-56
2022/08/19 12:50:01;;;;;;;23.57;21.50;;;24.00;99.90;;;;;;5029382;28;20420;-54
2022/08/19 12:52:27;;;;;;;22.87;20.87;;;23.90;99.90;;;;;;5028523;28;20677;-49
2022/08/19 12:54:55;;;;;;;23.77;21.67;;;23.80;99.90;;;;;;5029266;28;20417;-51